createdAt,value
2017-09-27T00:01:01.931Z,88.71
2017-09-27T00:03:30.255Z,88.84
2017-09-27T00:05:59.393Z,88.96
2017-09-27T00:08:27.707Z,89.03
2017-09-27T00:10:56.021Z,89.06
2017-09-27T00:13:25.098Z,89.15
2017-09-27T00:15:53.402Z,89.13
2017-09-27T00:18:21.709Z,89.11
2017-09-27T00:20:50.014Z,89.13
2017-09-27T00:23:18.333Z,89.07
2017-09-27T00:25:46.643Z,89.05
2017-09-27T00:28:15.710Z,89.03
2017-09-27T00:30:44.021Z,89.03
2017-09-27T00:33:13.943Z,88.96
2017-09-27T00:35:43.033Z,88.89
2017-09-27T00:38:12.099Z,88.91
2017-09-27T00:40:40.422Z,88.90
2017-09-27T00:43:09.508Z,88.87
2017-09-27T00:45:38.773Z,88.77
2017-09-27T00:48:07.100Z,88.68
2017-09-27T00:50:36.175Z,88.61
2017-09-27T00:53:04.491Z,88.47
2017-09-27T00:55:33.591Z,88.34
2017-09-27T00:58:01.901Z,88.29
2017-09-27T01:00:30.299Z,88.32
2017-09-27T01:02:58.602Z,88.40
2017-09-27T01:05:26.907Z,88.53
2017-09-27T01:07:56.703Z,88.57
2017-09-27T01:10:24.996Z,88.72
2017-09-27T01:12:53.293Z,88.87
2017-09-27T01:15:21.613Z,88.88
2017-09-27T01:17:49.925Z,88.95
2017-09-27T01:20:18.243Z,89.23
2017-09-27T01:22:46.546Z,89.39
2017-09-27T01:25:14.969Z,89.35
2017-09-27T01:27:43.271Z,89.32
2017-09-27T01:30:12.341Z,89.30
2017-09-27T01:32:40.634Z,89.25
2017-09-27T01:35:08.947Z,89.23
2017-09-27T01:37:37.263Z,89.24
2017-09-27T01:40:05.560Z,89.19
2017-09-27T01:42:33.881Z,89.19
2017-09-27T01:45:02.957Z,89.20
2017-09-27T01:47:31.254Z,89.22
2017-09-27T01:50:00.339Z,89.20
2017-09-27T01:52:30.131Z,89.24
2017-09-27T01:54:58.473Z,89.26
2017-09-27T01:57:27.626Z,89.18
2017-09-27T01:59:55.933Z,89.16
2017-09-27T02:02:24.239Z,89.24
2017-09-27T02:04:52.585Z,89.34
2017-09-27T02:07:20.899Z,89.35
2017-09-27T02:09:49.991Z,89.41
2017-09-27T02:12:19.137Z,89.44
2017-09-27T02:14:47.603Z,89.49
2017-09-27T02:17:15.937Z,89.50
2017-09-27T02:19:44.243Z,89.46
2017-09-27T02:22:13.359Z,89.53
2017-09-27T02:24:41.673Z,89.60
2017-09-27T02:27:09.993Z,89.48
2017-09-27T02:29:39.057Z,89.41
2017-09-27T02:32:07.379Z,89.44
2017-09-27T02:34:36.475Z,89.46
2017-09-27T02:37:05.535Z,89.49
2017-09-27T02:39:33.836Z,89.50
2017-09-27T02:42:02.196Z,89.58
2017-09-27T02:44:30.514Z,89.63
2017-09-27T02:46:58.832Z,89.60
2017-09-27T02:49:27.215Z,89.59
2017-09-27T02:51:55.530Z,89.64
2017-09-27T02:54:23.862Z,89.70
2017-09-27T02:56:52.930Z,89.70
2017-09-27T02:59:21.246Z,89.67
2017-09-27T03:01:49.553Z,89.68
2017-09-27T03:04:17.857Z,89.89
2017-09-27T03:06:46.172Z,90.14
2017-09-27T03:09:15.303Z,90.25
2017-09-27T03:11:43.622Z,90.31
2017-09-27T03:14:11.997Z,90.35
2017-09-27T03:16:40.314Z,90.43
2017-09-27T03:19:08.631Z,90.63
2017-09-27T03:21:36.962Z,90.80
2017-09-27T03:24:05.283Z,90.95
2017-09-27T03:26:33.580Z,91.10
2017-09-27T03:29:01.878Z,91.28
2017-09-27T03:31:30.220Z,91.41
2017-09-27T03:33:59.304Z,91.51
2017-09-27T03:36:27.617Z,91.65
2017-09-27T03:38:55.910Z,91.79
2017-09-27T03:41:24.228Z,91.95
2017-09-27T03:43:52.523Z,92.09
2017-09-27T03:46:20.844Z,92.23
2017-09-27T03:48:49.163Z,92.38
2017-09-27T03:51:17.479Z,92.51
2017-09-27T03:53:46.580Z,92.62
2017-09-27T03:56:15.648Z,92.74
2017-09-27T03:58:43.962Z,92.80
2017-09-27T04:01:13.059Z,92.85
2017-09-27T04:03:42.156Z,92.87
2017-09-27T04:06:11.254Z,92.97
2017-09-27T04:08:40.342Z,93.05
2017-09-27T04:11:08.692Z,93.12
2017-09-27T04:13:37.000Z,93.16
2017-09-27T04:16:05.323Z,93.17
2017-09-27T04:18:33.632Z,93.19
2017-09-27T04:21:01.973Z,93.23
2017-09-27T04:23:31.065Z,93.23
2017-09-27T04:26:00.213Z,93.24
2017-09-27T04:28:28.536Z,93.29
2017-09-27T04:30:57.709Z,93.39
2017-09-27T04:33:26.030Z,93.39
2017-09-27T04:35:55.131Z,93.30
2017-09-27T04:38:24.232Z,93.30
2017-09-27T04:40:53.297Z,93.25
2017-09-27T04:43:21.621Z,93.26
2017-09-27T04:45:49.941Z,93.31
2017-09-27T04:48:18.425Z,93.39
2017-09-27T04:50:46.761Z,93.38
2017-09-27T04:53:15.825Z,93.30
2017-09-27T04:55:44.208Z,93.25
2017-09-27T04:58:12.601Z,93.24
2017-09-27T05:00:40.901Z,93.23
2017-09-27T05:03:09.210Z,93.18
2017-09-27T05:05:37.525Z,93.12
2017-09-27T05:08:05.853Z,93.10
2017-09-27T05:10:35.011Z,93.07
2017-09-27T05:13:03.345Z,93.04
2017-09-27T05:15:32.413Z,93.04
2017-09-27T05:18:00.773Z,93.05
2017-09-27T05:20:29.815Z,93.06
2017-09-27T05:22:58.893Z,93.04
2017-09-27T05:25:27.205Z,93.04
2017-09-27T05:27:55.527Z,93.07
2017-09-27T05:30:23.849Z,93.08
2017-09-27T05:32:52.167Z,93.01
2017-09-27T05:35:20.481Z,92.87
2017-09-27T05:37:48.793Z,92.82
2017-09-27T05:40:17.110Z,92.82
2017-09-27T05:42:45.424Z,92.78
2017-09-27T05:45:13.737Z,92.79
2017-09-27T05:47:42.084Z,92.72
2017-09-27T05:50:10.406Z,92.66
2017-09-27T05:52:39.513Z,92.67
2017-09-27T05:55:08.627Z,92.64
2017-09-27T05:57:36.927Z,92.67
2017-09-27T06:00:05.259Z,92.68
2017-09-27T06:02:33.578Z,92.67
2017-09-27T06:05:01.885Z,92.67
2017-09-27T06:07:30.246Z,92.73
2017-09-27T06:09:58.577Z,92.78
2017-09-27T06:12:26.902Z,92.73
2017-09-27T06:14:55.205Z,92.63
2017-09-27T06:17:23.690Z,92.44
2017-09-27T06:19:51.995Z,92.37
2017-09-27T06:22:20.311Z,92.35
2017-09-27T06:24:49.384Z,92.28
2017-09-27T06:27:17.701Z,92.35
2017-09-27T06:29:46.777Z,92.39
2017-09-27T06:32:15.197Z,92.45
2017-09-27T06:34:43.501Z,92.51
2017-09-27T06:37:11.799Z,92.53
2017-09-27T06:39:40.138Z,92.49
2017-09-27T06:42:08.451Z,92.50
2017-09-27T06:44:36.773Z,92.49
2017-09-27T06:47:05.111Z,92.48
2017-09-27T06:49:33.426Z,92.46
2017-09-27T06:52:01.718Z,92.47
2017-09-27T06:54:30.799Z,92.48
2017-09-27T06:56:59.098Z,92.47
2017-09-27T06:59:27.417Z,92.55
2017-09-27T07:01:55.727Z,92.58
2017-09-27T07:04:24.062Z,92.66
2017-09-27T07:06:53.128Z,92.71
2017-09-27T07:09:21.434Z,92.71
2017-09-27T07:11:50.496Z,92.72
2017-09-27T07:14:18.863Z,92.76
2017-09-27T07:16:47.182Z,92.62
2017-09-27T07:19:15.519Z,92.52
2017-09-27T07:21:43.929Z,92.43
2017-09-27T07:24:12.231Z,92.34
2017-09-27T07:26:41.325Z,92.31
2017-09-27T07:29:09.733Z,92.16
2017-09-27T07:31:38.838Z,91.90
2017-09-27T07:34:07.173Z,91.79
2017-09-27T07:36:35.505Z,91.67
2017-09-27T07:39:04.601Z,91.54
2017-09-27T07:41:32.921Z,91.47
2017-09-27T07:44:01.247Z,91.39
2017-09-27T07:46:29.654Z,91.36
2017-09-27T07:48:57.955Z,91.29
2017-09-27T07:51:26.247Z,91.10
2017-09-27T07:53:54.554Z,90.92
2017-09-27T07:56:22.860Z,90.72
2017-09-27T07:58:51.947Z,90.46
2017-09-27T08:01:20.259Z,90.44
2017-09-27T08:03:49.341Z,90.35
2017-09-27T08:06:18.399Z,90.31
2017-09-27T08:08:46.740Z,90.18
2017-09-27T08:11:15.055Z,90.13
2017-09-27T08:13:43.453Z,89.96
2017-09-27T08:16:11.787Z,89.91
2017-09-27T08:18:40.104Z,89.74
2017-09-27T08:21:08.439Z,89.58
2017-09-27T08:23:37.516Z,89.50
2017-09-27T08:26:05.834Z,89.33
2017-09-27T08:28:34.150Z,89.23
2017-09-27T08:31:02.467Z,89.17
2017-09-27T08:33:30.783Z,88.78
2017-09-27T08:35:59.086Z,88.57
2017-09-27T08:38:27.398Z,88.55
2017-09-27T08:40:55.714Z,88.36
2017-09-27T08:43:24.809Z,88.24
2017-09-27T08:45:53.910Z,88.24
2017-09-27T08:48:22.991Z,88.06
2017-09-27T08:50:51.290Z,87.96
2017-09-27T08:53:20.367Z,87.89
2017-09-27T08:55:48.678Z,87.78
2017-09-27T08:58:17.781Z,87.84
2017-09-27T09:00:46.082Z,87.63
2017-09-27T09:03:14.380Z,87.57
2017-09-27T09:05:42.737Z,87.19
2017-09-27T09:08:11.063Z,86.77
2017-09-27T09:10:39.382Z,86.56
2017-09-27T09:13:08.464Z,86.62
2017-09-27T09:15:36.790Z,86.70
2017-09-27T09:18:05.104Z,86.58
2017-09-27T09:20:33.510Z,86.49
2017-09-27T09:23:01.823Z,86.57
2017-09-27T09:25:30.133Z,86.52
2017-09-27T09:27:58.443Z,86.41
2017-09-27T09:30:26.758Z,86.24
2017-09-27T09:32:55.072Z,86.06
2017-09-27T09:35:23.391Z,85.57
2017-09-27T09:37:51.716Z,85.46
2017-09-27T09:40:20.018Z,85.44
2017-09-27T09:42:48.362Z,85.41
2017-09-27T09:49:09.706Z,84.83
2017-09-27T09:51:38.009Z,84.72
2017-09-27T09:54:06.340Z,84.66
2017-09-27T09:56:35.441Z,84.50
2017-09-27T09:59:04.542Z,84.36
2017-09-27T10:01:33.697Z,84.40
2017-09-27T10:04:02.088Z,84.41
2017-09-27T10:06:30.430Z,84.46
2017-09-27T10:08:58.751Z,84.42
2017-09-27T10:11:27.071Z,84.34
2017-09-27T10:13:56.179Z,84.28
2017-09-27T10:16:25.248Z,83.95
2017-09-27T10:18:53.593Z,83.77
2017-09-27T10:21:21.914Z,83.89
2017-09-27T10:23:50.228Z,83.96
2017-09-27T10:26:18.561Z,83.70
2017-09-27T10:28:46.882Z,83.67
2017-09-27T10:31:15.210Z,83.53
2017-09-27T10:33:43.522Z,83.22
2017-09-27T11:04:33.132Z,80.47
2017-09-27T11:07:01.456Z,80.63
2017-09-27T11:09:29.786Z,80.39
2017-09-27T11:11:58.085Z,80.29
2017-09-27T11:14:26.434Z,79.93
2017-09-27T11:16:54.730Z,79.82
2017-09-27T11:19:23.040Z,79.66
2017-09-27T11:21:51.350Z,79.33
2017-09-27T11:24:19.669Z,78.77
2017-09-27T11:26:47.996Z,78.47
2017-09-27T11:29:17.070Z,78.18
2017-09-27T11:31:46.147Z,78.02
2017-09-27T11:34:14.487Z,77.97
2017-09-27T11:36:43.562Z,77.92
2017-09-27T11:41:50.332Z,77.32
2017-09-27T11:44:19.446Z,77.28
2017-09-27T11:46:48.520Z,77.13
2017-09-27T11:49:16.852Z,76.70
2017-09-27T11:51:45.934Z,76.48
2017-09-27T11:54:15.038Z,76.16
2017-09-27T11:56:44.121Z,75.82
2017-09-27T11:59:12.448Z,75.79
2017-09-27T12:01:40.754Z,75.66
2017-09-27T12:04:09.063Z,75.43
2017-09-27T12:06:37.428Z,75.57
2017-09-27T12:09:05.742Z,75.56
2017-09-27T12:11:34.728Z,75.77
2017-09-27T12:14:03.040Z,75.68
2017-09-27T12:16:32.116Z,75.62
2017-09-27T12:19:00.452Z,75.54
2017-09-27T12:21:28.770Z,75.46
2017-09-27T12:23:57.083Z,75.18
2017-09-27T12:26:26.172Z,74.75
2017-09-27T12:28:55.253Z,74.28
2017-09-27T12:31:23.554Z,74.06
2017-09-27T12:33:52.814Z,74.05
2017-09-27T12:36:21.122Z,74.10
2017-09-27T12:38:49.423Z,74.00
2017-09-27T12:41:18.506Z,73.61
2017-09-27T12:43:47.624Z,73.59
2017-09-27T12:46:16.700Z,73.37
2017-09-27T12:48:45.076Z,73.33
2017-09-27T12:51:13.403Z,73.33
2017-09-27T12:53:41.712Z,73.38
2017-09-27T12:56:10.040Z,73.23
2017-09-27T12:58:38.361Z,73.09
2017-09-27T13:01:06.675Z,73.16
2017-09-27T13:03:34.992Z,73.01
2017-09-27T13:06:03.330Z,72.94
2017-09-27T13:08:31.623Z,72.85
2017-09-27T13:10:59.938Z,72.62
2017-09-27T13:13:29.018Z,72.69
2017-09-27T13:15:57.312Z,72.65
2017-09-27T13:18:25.631Z,72.65
2017-09-27T13:20:53.935Z,72.66
2017-09-27T13:23:22.248Z,72.48
2017-09-27T13:25:50.593Z,72.44
2017-09-27T13:28:18.934Z,72.29
2017-09-27T13:30:48.007Z,72.01
2017-09-27T13:33:16.316Z,71.78
2017-09-27T13:35:45.384Z,71.42
2017-09-27T13:38:13.718Z,71.15
2017-09-27T13:40:42.030Z,71.07
2017-09-27T13:43:10.340Z,70.98
2017-09-27T13:45:38.677Z,70.78
2017-09-27T13:48:07.000Z,70.99
2017-09-27T13:50:35.312Z,70.93
2017-09-27T13:53:03.650Z,70.58
2017-09-27T13:55:31.963Z,70.53
2017-09-27T13:58:01.072Z,70.64
2017-09-27T14:00:30.134Z,70.63
2017-09-27T14:02:58.473Z,70.46
2017-09-27T14:05:26.780Z,70.54
2017-09-27T14:07:55.093Z,70.29
2017-09-27T14:10:23.416Z,70.12
2017-09-27T14:12:51.708Z,70.02
2017-09-27T14:15:20.046Z,69.79
2017-09-27T14:17:48.348Z,69.36
2017-09-27T14:20:16.656Z,69.14
2017-09-27T14:22:44.962Z,69.06
2017-09-27T14:25:13.306Z,68.83
2017-09-27T14:27:41.606Z,69.04
2017-09-27T14:30:09.922Z,68.69
2017-09-27T14:32:38.226Z,68.18
2017-09-27T14:35:07.293Z,68.03
2017-09-27T14:37:35.605Z,67.65
2017-09-27T14:40:04.672Z,67.66
2017-09-27T14:42:33.004Z,67.88
2017-09-27T14:45:01.325Z,67.96
2017-09-27T14:47:29.647Z,67.87
2017-09-27T14:49:57.994Z,67.78
2017-09-27T14:52:26.324Z,67.70
2017-09-27T14:54:54.646Z,67.75
2017-09-27T14:57:22.954Z,68.05
2017-09-27T14:59:51.250Z,68.25
2017-09-27T15:02:20.327Z,68.79
2017-09-27T15:04:48.645Z,70.36
2017-09-27T15:07:17.724Z,70.67
2017-09-27T15:09:46.787Z,70.74
2017-09-27T15:12:15.920Z,70.87
2017-09-27T15:14:44.227Z,70.99
2017-09-27T15:17:13.328Z,70.93
2017-09-27T15:19:42.394Z,71.17
2017-09-27T15:22:10.696Z,71.66
2017-09-27T15:24:39.778Z,71.69
2017-09-27T15:27:08.109Z,71.96
2017-09-27T15:29:36.420Z,71.62
2017-09-27T15:32:04.737Z,71.61
2017-09-27T15:34:33.826Z,71.51
2017-09-27T15:37:02.139Z,71.57
2017-09-27T15:39:30.449Z,71.33
2017-09-27T15:41:58.851Z,71.20
2017-09-27T15:44:27.159Z,71.06
2017-09-27T15:46:55.474Z,70.94
2017-09-27T15:49:23.789Z,70.86
2017-09-27T15:51:52.105Z,70.75
2017-09-27T15:54:20.497Z,70.60
2017-09-27T15:56:49.604Z,70.39
2017-09-27T15:59:18.699Z,70.10
2017-09-27T16:01:47.847Z,69.78
2017-09-27T16:04:16.157Z,69.67
2017-09-27T16:06:44.460Z,69.72
2017-09-27T16:09:13.562Z,69.42
2017-09-27T16:11:42.635Z,69.15
2017-09-27T16:14:11.081Z,68.56
2017-09-27T16:16:39.403Z,68.23
2017-09-27T16:19:07.724Z,67.88
2017-09-27T16:21:36.028Z,68.21
2017-09-27T16:24:04.331Z,68.07
2017-09-27T16:26:32.655Z,67.63
2017-09-27T16:29:01.714Z,67.62
2017-09-27T16:31:30.019Z,67.66
2017-09-27T16:33:58.348Z,67.52
2017-09-27T16:36:26.667Z,67.93
2017-09-27T16:38:54.985Z,68.39
2017-09-27T16:41:24.053Z,68.42
2017-09-27T16:43:52.375Z,68.14
2017-09-27T16:46:20.695Z,67.86
2017-09-27T16:48:49.005Z,67.54
2017-09-27T16:51:17.316Z,67.46
2017-09-27T16:53:45.628Z,67.58
2017-09-27T16:56:13.931Z,67.73
2017-09-27T16:58:42.245Z,68.19
2017-09-27T17:01:11.336Z,68.23
2017-09-27T17:03:39.774Z,68.19
2017-09-27T17:06:08.111Z,68.23
2017-09-27T17:08:37.211Z,68.22
2017-09-27T17:11:06.291Z,68.40
2017-09-27T17:13:34.588Z,68.54
2017-09-27T17:16:03.685Z,68.86
2017-09-27T17:18:32.798Z,68.92
2017-09-27T17:21:01.858Z,68.88
2017-09-27T17:23:30.151Z,68.97
2017-09-27T17:25:58.464Z,69.18
2017-09-27T17:28:27.534Z,69.44
2017-09-27T17:30:55.867Z,69.70
2017-09-27T17:33:24.173Z,69.88
2017-09-27T17:35:53.269Z,70.03
2017-09-27T17:38:21.597Z,69.98
2017-09-27T17:40:50.686Z,70.10
2017-09-27T17:43:19.013Z,70.23
2017-09-27T17:45:47.323Z,70.41
2017-09-27T17:48:15.640Z,70.53
2017-09-27T17:50:44.745Z,70.60
2017-09-27T17:53:13.806Z,70.51
2017-09-27T17:55:42.128Z,70.46
2017-09-27T17:58:11.220Z,70.60
2017-09-27T18:00:40.301Z,70.67
2017-09-27T18:03:08.619Z,70.67
2017-09-27T18:08:57.446Z,70.66
2017-09-27T18:11:31.430Z,70.60
2017-09-27T18:17:25.186Z,70.71
2017-09-27T18:19:53.707Z,70.60
2017-09-27T18:22:22.804Z,70.73
2017-09-27T18:24:51.112Z,70.91
2017-09-27T18:27:19.428Z,71.08
2017-09-27T18:29:47.736Z,71.20
2017-09-27T18:32:16.068Z,71.56
2017-09-27T18:34:44.465Z,71.65
2017-09-27T18:37:12.788Z,71.76
2017-09-27T18:39:41.104Z,71.98
2017-09-27T18:42:10.163Z,72.19
2017-09-27T18:44:39.275Z,72.31
2017-09-27T18:47:08.362Z,72.54
2017-09-27T18:49:36.672Z,72.79
2017-09-27T18:52:05.758Z,72.98
2017-09-27T18:54:34.059Z,73.03
2017-09-27T18:57:03.140Z,73.17
2017-09-27T18:59:31.435Z,73.34
2017-09-27T19:02:00.509Z,73.56
2017-09-27T19:04:29.596Z,73.79
2017-09-27T19:06:57.890Z,73.90
2017-09-27T19:09:26.196Z,74.00
2017-09-27T19:11:55.262Z,74.14
2017-09-27T19:14:23.586Z,74.22
2017-09-27T19:16:52.676Z,74.43
2017-09-27T19:19:21.770Z,74.49
2017-09-27T19:21:50.827Z,74.51
2017-09-27T19:24:19.168Z,74.44
2017-09-27T19:26:47.473Z,74.48
2017-09-27T19:29:15.845Z,74.54
2017-09-27T19:31:44.182Z,74.43
2017-09-27T19:34:12.506Z,74.48
2017-09-27T19:36:40.813Z,74.53
2017-09-27T19:39:09.213Z,74.51
2017-09-27T19:41:37.547Z,74.45
2017-09-27T19:44:05.857Z,74.29
2017-09-27T19:46:34.170Z,74.20
2017-09-27T19:49:02.682Z,74.15
2017-09-27T19:51:31.749Z,74.14
2017-09-27T19:54:00.076Z,74.23
2017-09-27T19:56:28.380Z,74.23
2017-09-27T19:58:56.698Z,74.27
2017-09-27T20:01:25.018Z,74.21
2017-09-27T20:03:53.338Z,74.28
2017-09-27T20:06:21.648Z,74.37
2017-09-27T20:08:49.941Z,74.46
2017-09-27T20:11:19.029Z,74.49
2017-09-27T20:13:47.357Z,74.58
2017-09-27T20:16:15.666Z,74.67
2017-09-27T20:18:43.964Z,74.76
2017-09-27T20:21:12.288Z,74.84
2017-09-27T20:23:40.609Z,74.85
2017-09-27T20:26:08.912Z,75.00
2017-09-27T20:28:37.215Z,74.88
2017-09-27T20:31:06.324Z,74.84
2017-09-27T20:33:35.418Z,74.88
2017-09-27T20:36:04.497Z,75.14
2017-09-27T20:38:32.817Z,75.04
2017-09-27T20:41:01.149Z,75.15
2017-09-27T20:43:29.604Z,75.26
2017-09-27T20:45:57.941Z,75.25
2017-09-27T20:48:27.049Z,75.30
2017-09-27T20:50:56.137Z,75.37
2017-09-27T20:53:25.225Z,75.56
2017-09-27T20:55:53.543Z,75.68
2017-09-27T20:58:21.848Z,75.80
2017-09-27T21:00:50.375Z,76.03
2017-09-27T21:03:20.188Z,76.39
2017-09-27T21:05:49.268Z,76.66
2017-09-27T21:08:17.578Z,77.02
2017-09-27T21:10:45.898Z,77.33
2017-09-27T21:13:14.221Z,77.65
2017-09-27T21:15:43.260Z,77.83
2017-09-27T21:18:12.348Z,77.82
2017-09-27T21:20:41.432Z,77.92
2017-09-27T21:23:09.759Z,77.98
2017-09-27T21:25:38.054Z,78.01
2017-09-27T21:28:06.382Z,78.08
2017-09-27T21:30:35.471Z,78.09
2017-09-27T21:33:03.767Z,78.09
2017-09-27T21:35:32.873Z,78.14
2017-09-27T21:38:01.171Z,78.14
2017-09-27T21:40:29.493Z,78.13
2017-09-27T21:42:57.818Z,78.19
2017-09-27T21:45:26.900Z,78.22
2017-09-27T21:47:55.253Z,78.23
2017-09-27T21:50:23.559Z,78.28
2017-09-27T21:52:51.871Z,78.39
2017-09-27T21:55:20.188Z,78.54
2017-09-27T21:57:48.497Z,78.68
2017-09-27T22:00:16.807Z,78.76
2017-09-27T22:02:45.115Z,78.78
2017-09-27T22:05:13.420Z,78.72
2017-09-27T22:07:41.710Z,78.78
2017-09-27T22:10:10.012Z,78.76
2017-09-27T22:12:39.165Z,78.71
2017-09-27T22:15:07.465Z,78.77
2017-09-27T22:17:35.877Z,78.78
2017-09-27T22:20:04.191Z,78.90
2017-09-27T22:22:33.270Z,78.92
2017-09-27T22:25:01.634Z,79.02
2017-09-27T22:27:29.949Z,79.14
2017-09-27T22:29:59.041Z,79.31
2017-09-27T22:32:28.111Z,79.46
2017-09-27T22:34:56.433Z,79.40
2017-09-27T22:37:25.541Z,79.50
2017-09-27T22:39:53.859Z,79.43
2017-09-27T22:42:22.160Z,79.36
2017-09-27T22:44:50.473Z,79.30
2017-09-27T22:47:19.567Z,79.22
2017-09-27T22:49:48.651Z,79.20
2017-09-27T22:52:16.972Z,79.21
2017-09-27T22:54:45.273Z,79.29
2017-09-27T22:57:13.589Z,79.29
2017-09-27T22:59:41.960Z,79.34
2017-09-27T23:02:10.277Z,79.33
2017-09-27T23:04:39.345Z,79.31
2017-09-27T23:07:07.668Z,79.41
2017-09-27T23:09:36.736Z,79.40
2017-09-27T23:12:05.176Z,79.52
2017-09-27T23:14:33.479Z,79.51
2017-09-27T23:17:01.786Z,79.56
2017-09-27T23:19:30.119Z,79.69
2017-09-27T23:21:58.432Z,79.77
2017-09-27T23:24:26.756Z,79.79
2017-09-27T23:26:55.836Z,79.86
2017-09-27T23:29:24.151Z,79.93
2017-09-27T23:31:52.487Z,79.91
2017-09-27T23:34:20.846Z,80.09
2017-09-27T23:36:49.145Z,80.01
2017-09-27T23:39:17.444Z,80.08
2017-09-27T23:41:45.772Z,80.16
2017-09-27T23:44:14.080Z,80.21
2017-09-27T23:46:42.392Z,80.41
2017-09-27T23:49:11.492Z,80.50
2017-09-27T23:51:39.808Z,80.60
2017-09-27T23:54:08.127Z,80.68
2017-09-27T23:56:36.483Z,80.68
2017-09-27T23:59:04.786Z,80.60
